sensor_id;sensor_type;location;lat;lon;timestamp;pressure;altitude;pressure_sealevel;temperature;humidity
67397;BME280;57728;50.448;18.824;2024-01-10T00:00:46;99520.44;;;-11.34;58.84
67397;BME280;57728;50.448;18.824;2024-01-10T00:02:47;99476.53;;;-11.56;58.85
67397;BME280;57728;50.448;18.824;2024-01-10T00:04:49;99502.16;;;-11.37;59.15
67397;BME280;57728;50.448;18.824;2024-01-10T00:06:52;99488.59;;;-11.50;58.88
67397;BME280;57728;50.448;18.824;2024-01-10T00:08:53;99461.44;;;-11.74;58.97
67397;BME280;57728;50.448;18.824;2024-01-10T00:10:56;99476.88;;;-11.65;59.29
67397;BME280;57728;50.448;18.824;2024-01-10T00:12:57;99518.25;;;-11.47;59.24
67397;BME280;57728;50.448;18.824;2024-01-10T00:14:58;99496.88;;;-11.61;59.33
67397;BME280;57728;50.448;18.824;2024-01-10T00:17:01;99484.09;;;-11.70;59.48
67397;BME280;57728;50.448;18.824;2024-01-10T00:19:02;99435.19;;;-11.98;59.50
67397;BME280;57728;50.448;18.824;2024-01-10T00:21:03;99488.28;;;-11.66;59.63
67397;BME280;57728;50.448;18.824;2024-01-10T00:23:06;99417.16;;;-12.09;59.64
67397;BME280;57728;50.448;18.824;2024-01-10T00:25:08;99482.31;;;-11.70;59.57
67397;BME280;57728;50.448;18.824;2024-01-10T00:27:09;99508.88;;;-11.54;59.71
67397;BME280;57728;50.448;18.824;2024-01-10T00:29:11;99525.00;;;-11.39;59.69
67397;BME280;57728;50.448;18.824;2024-01-10T00:31:13;99506.06;;;-11.49;59.83
67397;BME280;57728;50.448;18.824;2024-01-10T00:33:15;99525.00;;;-11.39;59.82
67397;BME280;57728;50.448;18.824;2024-01-10T00:35:17;99522.50;;;-11.43;59.88
67397;BME280;57728;50.448;18.824;2024-01-10T00:37:18;99493.47;;;-11.63;59.98
67397;BME280;57728;50.448;18.824;2024-01-10T00:39:19;99504.53;;;-11.55;59.96
67397;BME280;57728;50.448;18.824;2024-01-10T00:41:21;99494.06;;;-11.56;60.10
67397;BME280;57728;50.448;18.824;2024-01-10T00:43:23;99479.44;;;-11.64;60.08
67397;BME280;57728;50.448;18.824;2024-01-10T00:45:24;99478.13;;;-11.76;60.08
67397;BME280;57728;50.448;18.824;2024-01-10T00:47:26;99514.84;;;-11.49;60.22
67397;BME280;57728;50.448;18.824;2024-01-10T00:49:28;99371.97;;;-12.42;60.19
67397;BME280;57728;50.448;18.824;2024-01-10T00:51:29;99526.50;;;-11.56;60.37
67397;BME280;57728;50.448;18.824;2024-01-10T00:53:31;99506.19;;;-11.78;60.47
67397;BME280;57728;50.448;18.824;2024-01-10T00:55:32;99456.56;;;-12.09;60.53
67397;BME280;57728;50.448;18.824;2024-01-10T00:57:33;99488.22;;;-11.88;60.56
67397;BME280;57728;50.448;18.824;2024-01-10T00:59:35;99475.53;;;-12.01;60.68
67397;BME280;57728;50.448;18.824;2024-01-10T01:01:37;99465.19;;;-12.05;60.81
67397;BME280;57728;50.448;18.824;2024-01-10T01:03:38;99420.50;;;-12.29;60.91
67397;BME280;57728;50.448;18.824;2024-01-10T01:05:40;99492.38;;;-11.83;60.83
67397;BME280;57728;50.448;18.824;2024-01-10T01:07:42;99535.16;;;-11.54;60.79
67397;BME280;57728;50.448;18.824;2024-01-10T01:09:44;99462.91;;;-11.91;60.91
67397;BME280;57728;50.448;18.824;2024-01-10T01:11:46;99488.34;;;-11.68;60.90
67397;BME280;57728;50.448;18.824;2024-01-10T01:13:48;99538.00;;;-11.35;60.89
67397;BME280;57728;50.448;18.824;2024-01-10T01:15:49;99537.72;;;-11.27;61.02
67397;BME280;57728;50.448;18.824;2024-01-10T01:17:51;99472.19;;;-11.57;61.00
67397;BME280;57728;50.448;18.824;2024-01-10T01:19:52;99488.91;;;-11.34;60.87
67397;BME280;57728;50.448;18.824;2024-01-10T01:21:53;99510.31;;;-11.21;60.73
67397;BME280;57728;50.448;18.824;2024-01-10T01:23:56;99389.19;;;-11.86;60.53
67397;BME280;57728;50.448;18.824;2024-01-10T01:25:57;99534.84;;;-10.97;60.65
67397;BME280;57728;50.448;18.824;2024-01-10T01:27:58;99462.59;;;-11.34;60.34
67397;BME280;57728;50.448;18.824;2024-01-10T01:30:00;99506.28;;;-11.07;60.44
67397;BME280;57728;50.448;18.824;2024-01-10T01:32:01;99499.34;;;-11.09;60.31
67397;BME280;57728;50.448;18.824;2024-01-10T01:34:02;99470.03;;;-11.22;60.27
67397;BME280;57728;50.448;18.824;2024-01-10T01:36:06;99455.56;;;-11.34;60.24
67397;BME280;57728;50.448;18.824;2024-01-10T01:38:07;99472.03;;;-11.29;60.12
67397;BME280;57728;50.448;18.824;2024-01-10T01:40:09;99506.44;;;-11.11;60.30
67397;BME280;57728;50.448;18.824;2024-01-10T01:42:11;99493.13;;;-11.30;60.44
67397;BME280;57728;50.448;18.824;2024-01-10T01:44:12;99430.94;;;-11.79;60.45
67397;BME280;57728;50.448;18.824;2024-01-10T01:46:14;99475.41;;;-11.49;60.38
67397;BME280;57728;50.448;18.824;2024-01-10T01:48:17;99515.19;;;-11.34;60.66
67397;BME280;57728;50.448;18.824;2024-01-10T01:50:19;99503.88;;;-11.36;60.58
67397;BME280;57728;50.448;18.824;2024-01-10T01:52:21;99507.34;;;-11.36;60.70
67397;BME280;57728;50.448;18.824;2024-01-10T01:54:24;99433.88;;;-11.88;60.51
67397;BME280;57728;50.448;18.824;2024-01-10T01:56:26;99513.63;;;-11.40;60.81
67397;BME280;57728;50.448;18.824;2024-01-10T01:58:28;99512.72;;;-11.39;60.83
67397;BME280;57728;50.448;18.824;2024-01-10T02:00:30;99495.63;;;-11.51;60.79
67397;BME280;57728;50.448;18.824;2024-01-10T02:02:32;99511.53;;;-11.30;60.97
67397;BME280;57728;50.448;18.824;2024-01-10T02:04:36;99521.09;;;-11.28;60.80
67397;BME280;57728;50.448;18.824;2024-01-10T02:06:38;99490.72;;;-11.36;60.70
67397;BME280;57728;50.448;18.824;2024-01-10T02:08:39;99455.53;;;-11.56;60.70
67397;BME280;57728;50.448;18.824;2024-01-10T02:10:41;99427.81;;;-11.65;60.72
67397;BME280;57728;50.448;18.824;2024-01-10T02:12:43;99508.22;;;-11.12;60.49
67397;BME280;57728;50.448;18.824;2024-01-10T02:14:45;99487.41;;;-11.18;60.55
67397;BME280;57728;50.448;18.824;2024-01-10T02:16:46;99469.22;;;-11.24;60.52
67397;BME280;57728;50.448;18.824;2024-01-10T02:18:49;99494.88;;;-11.07;60.46
67397;BME280;57728;50.448;18.824;2024-01-10T02:20:51;99502.75;;;-11.07;60.35
67397;BME280;57728;50.448;18.824;2024-01-10T02:22:55;99459.63;;;-11.25;60.44
67397;BME280;57728;50.448;18.824;2024-01-10T02:24:58;99475.88;;;-11.14;60.34
67397;BME280;57728;50.448;18.824;2024-01-10T02:27:02;99467.41;;;-11.22;60.25
67397;BME280;57728;50.448;18.824;2024-01-10T02:29:04;99473.38;;;-11.18;60.33
67397;BME280;57728;50.448;18.824;2024-01-10T02:31:06;99475.50;;;-11.28;60.44
67397;BME280;57728;50.448;18.824;2024-01-10T02:33:07;99455.22;;;-11.48;60.49
67397;BME280;57728;50.448;18.824;2024-01-10T02:35:09;99473.44;;;-11.44;60.63
67397;BME280;57728;50.448;18.824;2024-01-10T02:37:11;99385.44;;;-12.03;60.65
67397;BME280;57728;50.448;18.824;2024-01-10T02:39:12;99402.53;;;-11.93;60.80
67397;BME280;57728;50.448;18.824;2024-01-10T02:41:14;99441.44;;;-11.79;60.96
67397;BME280;57728;50.448;18.824;2024-01-10T02:43:15;99467.00;;;-11.59;61.02
67397;BME280;57728;50.448;18.824;2024-01-10T02:45:18;99465.28;;;-11.60;61.08
67397;BME280;57728;50.448;18.824;2024-01-10T02:47:20;99449.03;;;-11.71;61.10
67397;BME280;57728;50.448;18.824;2024-01-10T02:49:21;99470.59;;;-11.61;61.19
67397;BME280;57728;50.448;18.824;2024-01-10T02:51:23;99465.34;;;-11.61;61.32
67397;BME280;57728;50.448;18.824;2024-01-10T02:53:26;99468.59;;;-11.54;61.38
67397;BME280;57728;50.448;18.824;2024-01-10T02:55:27;99438.47;;;-11.69;61.20
67397;BME280;57728;50.448;18.824;2024-01-10T02:57:29;99468.31;;;-11.47;61.32
67397;BME280;57728;50.448;18.824;2024-01-10T02:59:31;99470.03;;;-11.46;61.32
67397;BME280;57728;50.448;18.824;2024-01-10T03:01:32;99441.63;;;-11.60;61.17
67397;BME280;57728;50.448;18.824;2024-01-10T03:03:33;99436.25;;;-11.56;61.14
67397;BME280;57728;50.448;18.824;2024-01-10T03:05:35;99453.56;;;-11.51;61.24
67397;BME280;57728;50.448;18.824;2024-01-10T03:07:36;99451.94;;;-11.53;61.33
67397;BME280;57728;50.448;18.824;2024-01-10T03:09:37;99444.31;;;-11.61;61.39
67397;BME280;57728;50.448;18.824;2024-01-10T03:11:40;99424.75;;;-11.78;61.34
67397;BME280;57728;50.448;18.824;2024-01-10T03:13:43;99441.91;;;-11.67;61.33
67397;BME280;57728;50.448;18.824;2024-01-10T03:15:47;99434.16;;;-11.70;61.30
67397;BME280;57728;50.448;18.824;2024-01-10T03:17:50;99432.56;;;-11.74;61.22
67397;BME280;57728;50.448;18.824;2024-01-10T03:19:51;99430.25;;;-11.84;61.31
67397;BME280;57728;50.448;18.824;2024-01-10T03:21:53;99455.06;;;-11.67;61.31
67397;BME280;57728;50.448;18.824;2024-01-10T03:23:56;99462.13;;;-11.69;61.36
67397;BME280;57728;50.448;18.824;2024-01-10T03:25:58;99461.34;;;-11.71;61.54
67397;BME280;57728;50.448;18.824;2024-01-10T03:27:59;99455.63;;;-11.83;61.57
67397;BME280;57728;50.448;18.824;2024-01-10T03:30:02;99446.13;;;-11.87;61.93
67397;BME280;57728;50.448;18.824;2024-01-10T03:32:04;99455.38;;;-11.77;62.01
67397;BME280;57728;50.448;18.824;2024-01-10T03:34:05;99441.72;;;-11.86;61.93
67397;BME280;57728;50.448;18.824;2024-01-10T03:36:11;99426.41;;;-11.97;62.09
67397;BME280;57728;50.448;18.824;2024-01-10T03:38:17;99363.91;;;-12.13;62.05
67397;BME280;57728;50.448;18.824;2024-01-10T03:40:18;99411.91;;;-11.85;62.04
67397;BME280;57728;50.448;18.824;2024-01-10T03:42:20;99339.69;;;-12.21;61.98
67397;BME280;57728;50.448;18.824;2024-01-10T03:44:21;99331.34;;;-12.32;61.72
67397;BME280;57728;50.448;18.824;2024-01-10T03:46:23;99405.88;;;-11.87;61.92
67397;BME280;57728;50.448;18.824;2024-01-10T03:48:25;99388.34;;;-11.87;61.92
67397;BME280;57728;50.448;18.824;2024-01-10T03:50:26;99430.25;;;-11.60;61.88
67397;BME280;57728;50.448;18.824;2024-01-10T03:52:27;99375.56;;;-11.96;61.71
67397;BME280;57728;50.448;18.824;2024-01-10T03:54:30;99450.22;;;-11.54;61.74
67397;BME280;57728;50.448;18.824;2024-01-10T03:56:31;99423.78;;;-11.75;61.99
67397;BME280;57728;50.448;18.824;2024-01-10T03:58:32;99447.84;;;-11.62;61.90
67397;BME280;57728;50.448;18.824;2024-01-10T04:00:34;99447.00;;;-11.63;62.17
67397;BME280;57728;50.448;18.824;2024-01-10T04:02:37;99341.63;;;-12.26;62.29
67397;BME280;57728;50.448;18.824;2024-01-10T04:04:41;99463.56;;;-11.61;62.37
67397;BME280;57728;50.448;18.824;2024-01-10T04:06:43;99411.78;;;-11.82;62.30
67397;BME280;57728;50.448;18.824;2024-01-10T04:08:45;99455.59;;;-11.57;62.31
67397;BME280;57728;50.448;18.824;2024-01-10T04:10:46;99360.47;;;-12.15;62.12
67397;BME280;57728;50.448;18.824;2024-01-10T04:12:49;99379.31;;;-12.03;62.09
67397;BME280;57728;50.448;18.824;2024-01-10T04:14:50;99445.16;;;-11.61;62.25
67397;BME280;57728;50.448;18.824;2024-01-10T04:16:53;99445.34;;;-11.65;62.21
67397;BME280;57728;50.448;18.824;2024-01-10T04:18:55;99432.59;;;-11.76;62.27
67397;BME280;57728;50.448;18.824;2024-01-10T04:20:57;99439.28;;;-11.67;62.46
67397;BME280;57728;50.448;18.824;2024-01-10T04:22:58;99415.38;;;-11.85;62.44
67397;BME280;57728;50.448;18.824;2024-01-10T04:25:05;99438.47;;;-11.69;62.59
67397;BME280;57728;50.448;18.824;2024-01-10T04:27:07;99420.59;;;-11.83;62.75
67397;BME280;57728;50.448;18.824;2024-01-10T04:29:08;99417.94;;;-11.82;62.75
67397;BME280;57728;50.448;18.824;2024-01-10T04:31:11;99398.28;;;-11.95;62.74
67397;BME280;57728;50.448;18.824;2024-01-10T04:33:12;99437.69;;;-11.71;62.90
67397;BME280;57728;50.448;18.824;2024-01-10T04:35:13;99375.97;;;-12.07;62.67
67397;BME280;57728;50.448;18.824;2024-01-10T04:37:15;99414.41;;;-11.82;62.96
67397;BME280;57728;50.448;18.824;2024-01-10T04:39:17;99427.19;;;-11.71;63.07
67397;BME280;57728;50.448;18.824;2024-01-10T04:41:19;99357.91;;;-12.16;62.99
67397;BME280;57728;50.448;18.824;2024-01-10T04:43:21;99399.38;;;-12.01;63.15
67397;BME280;57728;50.448;18.824;2024-01-10T04:45:22;99406.09;;;-11.94;62.95
67397;BME280;57728;50.448;18.824;2024-01-10T04:47:24;99434.47;;;-11.80;63.08
67397;BME280;57728;50.448;18.824;2024-01-10T04:49:26;99443.25;;;-11.81;63.11
67397;BME280;57728;50.448;18.824;2024-01-10T04:51:27;99402.94;;;-12.03;62.99
67397;BME280;57728;50.448;18.824;2024-01-10T04:53:28;99429.53;;;-11.89;62.96
67397;BME280;57728;50.448;18.824;2024-01-10T04:55:30;99411.06;;;-12.09;63.03
67397;BME280;57728;50.448;18.824;2024-01-10T04:57:32;99438.59;;;-11.96;63.02
67397;BME280;57728;50.448;18.824;2024-01-10T04:59:33;99434.34;;;-12.00;63.15
67397;BME280;57728;50.448;18.824;2024-01-10T05:01:35;99438.81;;;-12.02;63.41
67397;BME280;57728;50.448;18.824;2024-01-10T05:03:37;99438.88;;;-12.04;63.32
67397;BME280;57728;50.448;18.824;2024-01-10T05:05:40;99415.56;;;-12.13;63.40
67397;BME280;57728;50.448;18.824;2024-01-10T05:07:42;99437.97;;;-12.03;63.57
67397;BME280;57728;50.448;18.824;2024-01-10T05:09:43;99431.78;;;-12.02;63.54
67397;BME280;57728;50.448;18.824;2024-01-10T05:11:45;99393.97;;;-12.21;63.63
67397;BME280;57728;50.448;18.824;2024-01-10T05:13:52;99419.72;;;-12.07;63.64
67397;BME280;57728;50.448;18.824;2024-01-10T05:15:53;99427.03;;;-11.92;63.74
67397;BME280;57728;50.448;18.824;2024-01-10T05:17:55;99325.69;;;-12.45;63.75
67397;BME280;57728;50.448;18.824;2024-01-10T05:19:57;99406.03;;;-11.92;63.80
67397;BME280;57728;50.448;18.824;2024-01-10T05:21:58;99418.06;;;-11.86;63.65
67397;BME280;57728;50.448;18.824;2024-01-10T05:24:00;99437.69;;;-11.71;63.81
67397;BME280;57728;50.448;18.824;2024-01-10T05:26:02;99413.53;;;-11.81;63.61
67397;BME280;57728;50.448;18.824;2024-01-10T05:28:04;99404.88;;;-11.85;63.82
67397;BME280;57728;50.448;18.824;2024-01-10T05:30:08;99421.16;;;-11.75;63.76
67397;BME280;57728;50.448;18.824;2024-01-10T05:32:11;99416.88;;;-11.78;63.52
67397;BME280;57728;50.448;18.824;2024-01-10T05:34:13;99430.47;;;-11.66;63.38
67397;BME280;57728;50.448;18.824;2024-01-10T05:36:15;99349.31;;;-12.20;63.32
67397;BME280;57728;50.448;18.824;2024-01-10T05:38:17;99435.63;;;-11.63;63.65
67397;BME280;57728;50.448;18.824;2024-01-10T05:40:18;99364.44;;;-12.03;63.59
67397;BME280;57728;50.448;18.824;2024-01-10T05:42:20;99442.13;;;-11.50;63.47
67397;BME280;57728;50.448;18.824;2024-01-10T05:44:21;99439.28;;;-11.44;63.29
67397;BME280;57728;50.448;18.824;2024-01-10T05:46:23;99439.06;;;-11.37;63.26
67397;BME280;57728;50.448;18.824;2024-01-10T05:48:24;99438.03;;;-11.33;63.09
67397;BME280;57728;50.448;18.824;2024-01-10T05:50:26;99363.34;;;-11.75;62.92
67397;BME280;57728;50.448;18.824;2024-01-10T05:52:27;99388.22;;;-11.60;62.82
67397;BME280;57728;50.448;18.824;2024-01-10T05:54:28;99447.47;;;-11.28;62.55
67397;BME280;57728;50.448;18.824;2024-01-10T05:56:30;99441.31;;;-11.28;62.72
67397;BME280;57728;50.448;18.824;2024-01-10T05:58:32;99428.59;;;-11.39;62.74
67397;BME280;57728;50.448;18.824;2024-01-10T06:00:33;99452.72;;;-11.28;62.56
67397;BME280;57728;50.448;18.824;2024-01-10T06:02:41;99430.13;;;-11.33;62.63
67397;BME280;57728;50.448;18.824;2024-01-10T06:04:43;99430.28;;;-11.38;62.54
67397;BME280;57728;50.448;18.824;2024-01-10T06:06:45;99397.69;;;-11.56;62.72
67397;BME280;57728;50.448;18.824;2024-01-10T06:08:47;99447.41;;;-11.26;62.67
67397;BME280;57728;50.448;18.824;2024-01-10T06:10:48;99339.19;;;-11.85;62.82
67397;BME280;57728;50.448;18.824;2024-01-10T06:12:49;99461.13;;;-11.18;62.93
67397;BME280;57728;50.448;18.824;2024-01-10T06:14:51;99455.84;;;-11.18;62.71
67397;BME280;57728;50.448;18.824;2024-01-10T06:16:53;99459.38;;;-11.19;62.45
67397;BME280;57728;50.448;18.824;2024-01-10T06:18:54;99455.03;;;-11.20;62.54
67397;BME280;57728;50.448;18.824;2024-01-10T06:20:56;99464.78;;;-11.22;62.41
67397;BME280;57728;50.448;18.824;2024-01-10T06:22:57;99463.16;;;-11.26;62.50
67397;BME280;57728;50.448;18.824;2024-01-10T06:24:59;99431.75;;;-11.53;62.36
67397;BME280;57728;50.448;18.824;2024-01-10T06:27:01;99469.53;;;-11.32;62.42
67397;BME280;57728;50.448;18.824;2024-01-10T06:29:02;99465.22;;;-11.34;62.66
67397;BME280;57728;50.448;18.824;2024-01-10T06:31:04;99464.38;;;-11.35;62.66
67397;BME280;57728;50.448;18.824;2024-01-10T06:33:06;99457.72;;;-11.45;62.77
67397;BME280;57728;50.448;18.824;2024-01-10T06:35:07;99438.88;;;-11.56;62.85
67397;BME280;57728;50.448;18.824;2024-01-10T06:37:10;99463.63;;;-11.38;62.80
67397;BME280;57728;50.448;18.824;2024-01-10T06:39:12;99459.28;;;-11.39;62.89
67397;BME280;57728;50.448;18.824;2024-01-10T06:41:13;99437.13;;;-11.56;62.82
67397;BME280;57728;50.448;18.824;2024-01-10T06:43:18;99431.00;;;-11.56;62.87
67397;BME280;57728;50.448;18.824;2024-01-10T06:45:20;99419.97;;;-11.66;62.82
67397;BME280;57728;50.448;18.824;2024-01-10T06:47:21;99418.47;;;-11.73;62.88
67397;BME280;57728;50.448;18.824;2024-01-10T06:49:22;99347.56;;;-12.21;62.99
67397;BME280;57728;50.448;18.824;2024-01-10T06:51:25;99432.31;;;-11.68;63.13
67397;BME280;57728;50.448;18.824;2024-01-10T06:53:27;99408.16;;;-11.78;63.29
67397;BME280;57728;50.448;18.824;2024-01-10T06:55:28;99431.34;;;-11.66;63.23
67397;BME280;57728;50.448;18.824;2024-01-10T06:57:30;99422.50;;;-11.63;63.45
67397;BME280;57728;50.448;18.824;2024-01-10T06:59:32;99358.19;;;-12.00;63.54
67397;BME280;57728;50.448;18.824;2024-01-10T07:01:33;99352.28;;;-12.05;63.49
67397;BME280;57728;50.448;18.824;2024-01-10T07:03:35;99419.00;;;-11.64;63.48
67397;BME280;57728;50.448;18.824;2024-01-10T07:05:36;99425.91;;;-11.61;63.62
67397;BME280;57728;50.448;18.824;2024-01-10T07:07:37;99407.75;;;-11.67;63.72
67397;BME280;57728;50.448;18.824;2024-01-10T07:09:39;99429.63;;;-11.43;63.72
67397;BME280;57728;50.448;18.824;2024-01-10T07:11:41;99423.47;;;-11.42;63.76
67397;BME280;57728;50.448;18.824;2024-01-10T07:13:43;99299.19;;;-12.14;63.62
67397;BME280;57728;50.448;18.824;2024-01-10T07:15:45;99375.28;;;-11.66;63.79
67397;BME280;57728;50.448;18.824;2024-01-10T07:17:46;99383.75;;;-11.58;64.01
67397;BME280;57728;50.448;18.824;2024-01-10T07:19:49;99409.22;;;-11.36;64.20
67397;BME280;57728;50.448;18.824;2024-01-10T07:21:51;99426.16;;;-11.21;64.39
67397;BME280;57728;50.448;18.824;2024-01-10T07:23:54;99428.63;;;-11.17;64.34
67397;BME280;57728;50.448;18.824;2024-01-10T07:25:57;99350.41;;;-11.56;64.27
67397;BME280;57728;50.448;18.824;2024-01-10T07:28:01;99405.94;;;-11.19;64.08
67397;BME280;57728;50.448;18.824;2024-01-10T07:30:05;99429.06;;;-11.06;64.28
67397;BME280;57728;50.448;18.824;2024-01-10T07:32:14;99394.50;;;-11.18;64.30
67397;BME280;57728;50.448;18.824;2024-01-10T07:34:16;99372.03;;;-11.27;64.34
67397;BME280;57728;50.448;18.824;2024-01-10T07:36:17;99393.88;;;-11.03;64.19
67397;BME280;57728;50.448;18.824;2024-01-10T07:38:18;99376.75;;;-11.13;64.36
67397;BME280;57728;50.448;18.824;2024-01-10T07:40:20;99392.63;;;-10.93;64.39
67397;BME280;57728;50.448;18.824;2024-01-10T07:42:23;99337.13;;;-11.09;64.34
67397;BME280;57728;50.448;18.824;2024-01-10T07:44:24;99397.41;;;-10.60;64.46
67397;BME280;57728;50.448;18.824;2024-01-10T07:46:28;99437.09;;;-10.23;64.40
67397;BME280;57728;50.448;18.824;2024-01-10T07:48:30;99414.03;;;-10.18;64.30
67397;BME280;57728;50.448;18.824;2024-01-10T07:50:32;99410.06;;;-9.87;64.08
67397;BME280;57728;50.448;18.824;2024-01-10T07:52:34;99400.47;;;-9.69;63.70
67397;BME280;57728;50.448;18.824;2024-01-10T07:54:36;99340.13;;;-9.56;63.92
67397;BME280;57728;50.448;18.824;2024-01-10T07:56:40;99389.41;;;-8.65;63.92
67397;BME280;57728;50.448;18.824;2024-01-10T07:58:42;99399.44;;;-7.85;63.51
67397;BME280;57728;50.448;18.824;2024-01-10T08:00:43;99331.13;;;-7.77;62.53
67397;BME280;57728;50.448;18.824;2024-01-10T08:02:46;99414.13;;;-6.66;61.91
67397;BME280;57728;50.448;18.824;2024-01-10T08:04:48;99410.84;;;-6.09;61.36
67397;BME280;57728;50.448;18.824;2024-01-10T08:06:49;99386.31;;;-5.70;60.69
67397;BME280;57728;50.448;18.824;2024-01-10T08:08:50;99389.78;;;-5.11;59.85
67397;BME280;57728;50.448;18.824;2024-01-10T08:10:52;99404.88;;;-4.57;58.91
67397;BME280;57728;50.448;18.824;2024-01-10T08:12:53;99397.22;;;-4.22;57.94
67397;BME280;57728;50.448;18.824;2024-01-10T08:14:55;99389.34;;;-4.23;56.63
67397;BME280;57728;50.448;18.824;2024-01-10T08:16:57;99400.75;;;-4.21;56.17
67397;BME280;57728;50.448;18.824;2024-01-10T08:19:01;99361.16;;;-4.26;55.76
67397;BME280;57728;50.448;18.824;2024-01-10T08:21:04;99403.03;;;-3.76;55.81
67397;BME280;57728;50.448;18.824;2024-01-10T08:23:06;99379.59;;;-3.58;55.28
67397;BME280;57728;50.448;18.824;2024-01-10T08:25:08;99287.41;;;-3.72;54.97
67397;BME280;57728;50.448;18.824;2024-01-10T08:27:09;99401.22;;;-2.63;54.35
67397;BME280;57728;50.448;18.824;2024-01-10T08:29:11;99287.94;;;-3.06;53.19
67397;BME280;57728;50.448;18.824;2024-01-10T08:31:16;99381.72;;;-2.28;52.70
67397;BME280;57728;50.448;18.824;2024-01-10T08:33:17;99401.38;;;-1.94;52.13
67397;BME280;57728;50.448;18.824;2024-01-10T08:35:20;99349.88;;;-2.18;51.11
67397;BME280;57728;50.448;18.824;2024-01-10T08:37:21;99370.44;;;-1.96;51.12
67397;BME280;57728;50.448;18.824;2024-01-10T08:39:23;99411.78;;;-1.44;50.90
67397;BME280;57728;50.448;18.824;2024-01-10T08:41:27;99409.47;;;-1.14;50.54
67397;BME280;57728;50.448;18.824;2024-01-10T08:43:29;99371.06;;;-1.13;49.82
67397;BME280;57728;50.448;18.824;2024-01-10T08:45:31;99368.00;;;-0.86;49.56
67397;BME280;57728;50.448;18.824;2024-01-10T08:47:33;99371.03;;;-0.47;49.46
67397;BME280;57728;50.448;18.824;2024-01-10T08:49:35;99209.88;;;-1.14;48.75
67397;BME280;57728;50.448;18.824;2024-01-10T08:51:37;99389.19;;;0.24;48.17
67397;BME280;57728;50.448;18.824;2024-01-10T08:53:39;99373.06;;;0.36;47.97
67397;BME280;57728;50.448;18.824;2024-01-10T08:55:41;99340.50;;;0.40;47.63
67397;BME280;57728;50.448;18.824;2024-01-10T08:57:42;99373.66;;;0.80;46.83
67397;BME280;57728;50.448;18.824;2024-01-10T08:59:44;99405.38;;;1.06;46.40
67397;BME280;57728;50.448;18.824;2024-01-10T09:01:45;99297.56;;;0.61;46.18
67397;BME280;57728;50.448;18.824;2024-01-10T09:03:46;99345.56;;;1.15;46.04
67397;BME280;57728;50.448;18.824;2024-01-10T09:05:48;99386.41;;;1.48;44.80
67397;BME280;57728;50.448;18.824;2024-01-10T09:07:50;99337.50;;;1.15;44.43
67397;BME280;57728;50.448;18.824;2024-01-10T09:09:51;99392.47;;;1.40;44.11
67397;BME280;57728;50.448;18.824;2024-01-10T09:11:53;99393.34;;;1.50;44.36
67397;BME280;57728;50.448;18.824;2024-01-10T09:13:54;99382.88;;;1.77;44.62
67397;BME280;57728;50.448;18.824;2024-01-10T09:15:55;99407.19;;;2.04;43.68
67397;BME280;57728;50.448;18.824;2024-01-10T09:17:58;99374.09;;;2.23;44.14
67397;BME280;57728;50.448;18.824;2024-01-10T09:19:59;99403.47;;;2.92;43.58
67397;BME280;57728;50.448;18.824;2024-01-10T09:22:03;99348.09;;;3.17;43.12
67397;BME280;57728;50.448;18.824;2024-01-10T09:24:05;99368.00;;;3.70;42.51
67397;BME280;57728;50.448;18.824;2024-01-10T09:26:09;99379.66;;;4.15;42.47
67397;BME280;57728;50.448;18.824;2024-01-10T09:28:11;99369.47;;;4.53;41.78
67397;BME280;57728;50.448;18.824;2024-01-10T09:30:13;99373.25;;;4.95;41.05
67397;BME280;57728;50.448;18.824;2024-01-10T09:32:17;99375.09;;;5.29;40.62
67397;BME280;57728;50.448;18.824;2024-01-10T09:34:19;99375.50;;;5.59;39.97
67397;BME280;57728;50.448;18.824;2024-01-10T09:36:22;99377.53;;;5.73;39.19
67397;BME280;57728;50.448;18.824;2024-01-10T09:38:23;99389.34;;;5.64;38.49
67397;BME280;57728;50.448;18.824;2024-01-10T09:40:25;99379.38;;;5.56;38.38
67397;BME280;57728;50.448;18.824;2024-01-10T09:42:30;99327.81;;;5.25;38.31
67397;BME280;57728;50.448;18.824;2024-01-10T09:44:33;99333.00;;;5.18;37.61
67397;BME280;57728;50.448;18.824;2024-01-10T09:46:39;99355.13;;;5.13;37.33
67397;BME280;57728;50.448;18.824;2024-01-10T09:48:42;99359.44;;;4.98;37.08
67397;BME280;57728;50.448;18.824;2024-01-10T09:50:48;99376.34;;;5.08;37.33
67397;BME280;57728;50.448;18.824;2024-01-10T09:52:58;99347.78;;;4.97;37.28
67397;BME280;57728;50.448;18.824;2024-01-10T09:55:08;99364.06;;;5.14;37.23
67397;BME280;57728;50.448;18.824;2024-01-10T09:57:12;99339.09;;;5.20;37.24
67397;BME280;57728;50.448;18.824;2024-01-10T09:59:14;99352.84;;;5.43;36.65
67397;BME280;57728;50.448;18.824;2024-01-10T10:01:16;99359.75;;;5.38;36.63
67397;BME280;57728;50.448;18.824;2024-01-10T10:03:21;99368.69;;;5.38;36.42
67397;BME280;57728;50.448;18.824;2024-01-10T10:05:22;99362.31;;;5.64;36.79
67397;BME280;57728;50.448;18.824;2024-01-10T10:07:25;99363.38;;;5.96;36.30
67397;BME280;57728;50.448;18.824;2024-01-10T10:09:26;99361.53;;;6.13;35.91
67397;BME280;57728;50.448;18.824;2024-01-10T10:11:30;99356.97;;;6.30;36.07
67397;BME280;57728;50.448;18.824;2024-01-10T10:13:32;99348.50;;;6.49;35.49
67397;BME280;57728;50.448;18.824;2024-01-10T10:15:37;99313.34;;;6.25;35.19
67397;BME280;57728;50.448;18.824;2024-01-10T10:17:39;99350.16;;;6.59;35.44
67397;BME280;57728;50.448;18.824;2024-01-10T10:19:47;99346.94;;;6.63;35.28
67397;BME280;57728;50.448;18.824;2024-01-10T10:21:49;99320.44;;;6.50;34.59
67397;BME280;57728;50.448;18.824;2024-01-10T10:24:00;99324.81;;;6.43;34.33
67397;BME280;57728;50.448;18.824;2024-01-10T10:26:17;99353.22;;;6.47;34.59
67397;BME280;57728;50.448;18.824;2024-01-10T10:28:21;99357.25;;;6.51;34.58
67397;BME280;57728;50.448;18.824;2024-01-10T10:30:25;99349.13;;;6.60;34.49
67397;BME280;57728;50.448;18.824;2024-01-10T10:32:27;99310.63;;;6.33;34.17
67397;BME280;57728;50.448;18.824;2024-01-10T10:34:32;99295.41;;;6.40;34.30